Progress, Oregon
Current Conditions -  °F | °C
As of 10:09 PM on Friday 28 Nov 2014 (Local Time) from KHIO Reporting Station
Broken Clouds Broken Clouds  
Wind Chill:   Ceiling: 6500
Heat Index:   Visibility: 10mi
Dew Point:   Wind: 3mph
Humidity: 89%   Direction: 320°NW
Pressure: 29.6"   Gusts: NA
Location:  45.4908°N, 122.804°W
Report Text: KHIO 290609Z AUTO 32003KT 10SM FEW021 SCT028 BKN065 06/04 A2960 RMK AO2 RAE06 P0000 T00560039
Loading
Personal Weather Stations






























Interactive Weather Map New forecast layout! Learn more

10-Day Weather Forecast

Advertisements
Track Severe Weather on mobile